Time;durP1;ratioP1;P1;durP2;ratioP2;P2;SDS_P1;SDS_P2;PMS_P1;PMS_P2;Temp;Humidity;BMP_temperature;BMP_pressure;BME280_temperature;BME280_humidity;BME280_pressure;Samples;Min_cycle;Max_cycle;Signal;HPM_P1;HPM_P2
2021/08/06 00:01:26;;;;;;;6.72;2.22;;;19.80;79.40;;;;;;5053974;28;20079;-76
2021/08/06 00:03:54;;;;;;;6.63;3.10;;;19.80;79.60;;;;;;5054839;28;20052;-76
2021/08/06 00:06:20;;;;;;;5.65;3.40;;;19.90;80.00;;;;;;5053436;28;20009;-76
2021/08/06 00:08:45;;;;;;;6.03;2.88;;;19.80;80.10;;;;;;5036959;28;20040;-76
2021/08/06 00:11:11;;;;;;;5.75;2.65;;;19.80;80.20;;;;;;5036761;28;20082;-76
2021/08/06 00:13:37;;;;;;;5.43;2.70;;;19.80;80.20;;;;;;5053644;28;20116;-76
2021/08/06 00:16:03;;;;;;;6.53;2.58;;;19.80;80.50;;;;;;5036672;28;20032;-76
2021/08/06 00:18:28;;;;;;;5.03;2.60;;;19.80;80.50;;;;;;5036588;28;20037;-76
2021/08/06 00:20:54;;;;;;;5.00;3.03;;;19.80;80.60;;;;;;5053189;28;20028;-76
2021/08/06 00:23:20;;;;;;;4.38;2.80;;;19.80;80.80;;;;;;5053480;28;20489;-75
2021/08/06 00:25:46;;;;;;;5.07;2.80;;;19.80;81.40;;;;;;5054222;28;20033;-75
2021/08/06 00:28:12;;;;;;;4.07;2.15;;;19.80;81.20;;;;;;5036794;28;20028;-76
2021/08/06 00:30:37;;;;;;;5.70;3.20;;;19.80;81.30;;;;;;5036588;28;20469;-76
2021/08/06 00:33:03;;;;;;;7.63;3.25;;;19.70;81.40;;;;;;5053056;28;20037;-76
2021/08/06 00:35:29;;;;;;;4.30;2.58;;;19.70;81.60;;;;;;5052826;28;20500;-76
2021/08/06 00:37:55;;;;;;;4.07;2.55;;;19.70;81.60;;;;;;5036518;28;20029;-76
2021/08/06 00:40:25;;;;;;;6.15;2.90;;;19.70;82.50;;;;;;5036179;28;20127;-76
2021/08/06 00:42:52;;;;;;;5.65;3.30;;;19.70;82.10;;;;;;5036152;28;20071;-76
2021/08/06 00:45:18;;;;;;;4.25;2.75;;;19.60;82.10;;;;;;5052910;28;20460;-76
2021/08/06 00:47:44;;;;;;;3.90;2.33;;;19.60;82.20;;;;;;5035904;28;20082;-76
2021/08/06 00:50:11;;;;;;;5.28;2.28;;;19.60;82.40;;;;;;5036379;28;20032;-76
2021/08/06 00:52:38;;;;;;;4.35;2.25;;;19.60;82.50;;;;;;5052806;28;20073;-75
2021/08/06 00:55:05;;;;;;;4.45;2.65;;;19.60;82.60;;;;;;5052805;28;20025;-76
2021/08/06 00:57:31;;;;;;;4.72;2.20;;;19.60;82.80;;;;;;5053939;28;20037;-76
2021/08/06 00:59:57;;;;;;;4.63;2.42;;;19.60;83.00;;;;;;5052392;28;20142;-76
2021/08/06 01:02:39;;;;;;;5.25;2.47;;;19.60;83.00;;;;;;5036053;28;20043;-76
2021/08/06 01:05:14;;;;;;;6.30;2.78;;;19.60;83.10;;;;;;5053828;28;20021;-75
2021/08/06 01:07:52;;;;;;;5.53;2.83;;;19.50;83.10;;;;;;5036145;28;20025;-76
2021/08/06 01:10:22;;;;;;;3.78;2.38;;;19.60;83.30;;;;;;5052471;28;20028;-76
2021/08/06 01:12:58;;;;;;;6.05;2.42;;;19.60;83.50;;;;;;5052413;28;20021;-76
2021/08/06 01:15:25;;;;;;;5.53;2.13;;;19.60;83.60;;;;;;5053504;28;20033;-76
2021/08/06 01:17:52;;;;;;;5.85;2.42;;;19.60;83.70;;;;;;5052670;28;20052;-76
2021/08/06 01:20:25;;;;;;;4.03;2.50;;;19.60;83.80;;;;;;5035767;28;20370;-75
2021/08/06 01:23:06;;;;;;;5.75;2.55;;;19.60;83.80;;;;;;5053296;28;20052;-76
2021/08/06 01:25:51;;;;;;;4.93;2.55;;;19.60;83.80;;;;;;5052432;28;20491;-75
2021/08/06 01:28:23;;;;;;;6.90;2.63;;;19.60;83.90;;;;;;5053714;28;20469;-76
2021/08/06 01:30:49;;;;;;;4.32;2.63;;;19.60;84.10;;;;;;5052448;28;20361;-75
2021/08/06 01:33:16;;;;;;;4.20;2.50;;;19.60;85.10;;;;;;5053516;28;20102;-76
2021/08/06 01:35:42;;;;;;;4.88;2.63;;;19.60;84.40;;;;;;5052346;28;20029;-76
2021/08/06 01:38:09;;;;;;;4.85;2.65;;;19.60;84.30;;;;;;5053348;28;20064;-75
2021/08/06 01:41:14;;;;;;;4.00;2.10;;;19.60;84.40;;;;;;5053399;28;20036;-75
2021/08/06 01:44:00;;;;;;;6.97;2.28;;;19.60;84.50;;;;;;5051611;28;20033;-75
2021/08/06 01:46:33;;;;;;;5.55;2.40;;;19.60;84.40;;;;;;5052035;28;20051;-76
2021/08/06 01:49:15;;;;;;;6.03;2.65;;;19.60;84.40;;;;;;5053098;28;20095;-75
2021/08/06 01:51:44;;;;;;;6.00;2.83;;;19.60;84.50;;;;;;5052052;28;20063;-76
2021/08/06 01:54:14;;;;;;;4.35;2.40;;;19.60;84.70;;;;;;5053064;28;20484;-76
2021/08/06 01:56:41;;;;;;;6.05;2.30;;;19.60;84.60;;;;;;5053185;28;20032;-73
2021/08/06 01:59:08;;;;;;;5.15;2.33;;;19.60;84.60;;;;;;5054780;28;20404;-76
2021/08/06 02:01:34;;;;;;;3.55;1.98;;;19.60;84.60;;;;;;5057055;28;20017;-75
2021/08/06 02:04:00;;;;;;;3.13;1.65;;;19.60;84.40;;;;;;5039103;28;20112;-74
2021/08/06 02:06:26;;;;;;;4.88;1.98;;;19.60;84.20;;;;;;5039173;28;20075;-75
2021/08/06 02:08:52;;;;;;;3.53;1.70;;;19.60;84.00;;;;;;5040010;28;20037;-78
2021/08/06 02:11:19;;;;;;;3.90;1.50;;;19.60;83.80;;;;;;5055350;28;20063;-77
2021/08/06 02:13:46;;;;;;;4.10;2.05;;;19.60;83.60;;;;;;5056619;28;20443;-78
2021/08/06 02:16:13;;;;;;;4.22;1.67;;;19.60;83.40;;;;;;5055142;28;20060;-77
2021/08/06 02:18:40;;;;;;;4.10;2.00;;;19.60;83.10;;;;;;5056582;28;20079;-80
2021/08/06 02:21:14;;;;;;;4.05;2.33;;;19.60;84.30;;;;;;5055649;28;20021;-82
2021/08/06 02:23:44;;;;;;;6.32;2.20;;;19.50;84.60;;;;;;5056417;28;20116;-79
2021/08/06 02:26:11;;;;;;;2.75;1.15;;;19.50;85.30;;;;;;5055619;28;20091;-79
2021/08/06 02:28:38;;;;;;;3.33;1.60;;;19.40;85.40;;;;;;5055159;28;20017;-81
2021/08/06 02:31:04;;;;;;;4.82;1.83;;;19.30;85.90;;;;;;5038278;28;20354;-79
2021/08/06 02:33:31;;;;;;;9.15;1.80;;;19.30;86.20;;;;;;5056634;28;20040;-79
2021/08/06 02:35:57;;;;;;;3.22;1.58;;;19.20;86.20;;;;;;5038932;28;20120;-79
2021/08/06 02:38:23;;;;;;;3.70;1.42;;;19.20;86.60;;;;;;5021778;28;20055;-80
2021/08/06 02:40:51;;;;;;;3.85;1.90;;;19.20;86.90;;;;;;5038434;28;20026;-79
2021/08/06 02:43:17;;;;;;;6.25;2.22;;;19.20;87.10;;;;;;5054962;28;20028;-79
2021/08/06 02:45:45;;;;;;;4.45;1.98;;;19.20;87.30;;;;;;5054723;28;20494;-79
2021/08/06 02:48:11;;;;;;;4.38;2.00;;;19.20;87.40;;;;;;5056084;28;20092;-79
2021/08/06 02:50:37;;;;;;;3.75;1.55;;;19.20;88.20;;;;;;5054776;28;20499;-78
2021/08/06 02:53:02;;;;;;;3.45;1.92;;;19.20;87.80;;;;;;5038174;28;20033;-78
2021/08/06 02:55:28;;;;;;;4.88;1.67;;;19.20;88.00;;;;;;5054579;28;20043;-78
2021/08/06 02:57:53;;;;;;;5.32;2.25;;;19.20;88.00;;;;;;5038046;28;20063;-80
2021/08/06 03:00:19;;;;;;;6.05;2.15;;;19.20;88.10;;;;;;5055750;28;20061;-78
2021/08/06 03:02:45;;;;;;;5.07;2.45;;;19.20;88.20;;;;;;5054524;28;20487;-79
2021/08/06 03:05:10;;;;;;;4.38;1.98;;;19.20;88.30;;;;;;5054559;28;20021;-78
2021/08/06 03:07:36;;;;;;;4.35;2.25;;;19.20;88.40;;;;;;5037925;28;20037;-79
2021/08/06 03:10:04;;;;;;;7.05;2.53;;;19.20;88.40;;;;;;5037326;28;20039;-78
2021/08/06 03:12:30;;;;;;;7.28;2.47;;;19.20;88.60;;;;;;5054302;28;20021;-79
2021/08/06 03:14:55;;;;;;;7.03;2.30;;;19.20;88.50;;;;;;5054248;28;20098;-77
2021/08/06 03:17:21;;;;;;;4.78;2.38;;;19.20;88.50;;;;;;5055492;28;20032;-79
2021/08/06 03:19:47;;;;;;;4.72;2.35;;;19.20;88.30;;;;;;5054286;28;20497;-77
2021/08/06 03:22:12;;;;;;;8.73;2.50;;;19.20;88.10;;;;;;5054219;28;20032;-77
2021/08/06 03:24:38;;;;;;;3.67;2.17;;;19.20;87.90;;;;;;5055284;28;20045;-78
2021/08/06 03:27:04;;;;;;;3.65;2.13;;;19.20;87.90;;;;;;5021158;28;20389;-78
2021/08/06 03:29:29;;;;;;;4.22;2.10;;;19.20;87.90;;;;;;5037528;28;20036;-78
2021/08/06 03:31:55;;;;;;;5.90;2.08;;;19.20;87.90;;;;;;5037493;28;20036;-77
2021/08/06 03:34:21;;;;;;;4.28;1.90;;;19.20;87.90;;;;;;5037259;28;20123;-79
2021/08/06 03:36:46;;;;;;;4.20;2.35;;;19.20;87.80;;;;;;5053908;28;20047;-76
2021/08/06 03:39:12;;;;;;;4.95;2.10;;;19.20;87.80;;;;;;5037079;28;20033;-75
2021/08/06 03:41:37;;;;;;;4.30;2.17;;;19.20;87.80;;;;;;5037098;28;20021;-76
2021/08/06 03:44:03;;;;;;;5.50;2.35;;;19.20;87.80;;;;;;5053892;28;20029;-76
2021/08/06 03:46:29;;;;;;;3.92;1.92;;;19.20;87.80;;;;;;5053826;28;20029;-75
2021/08/06 03:48:54;;;;;;;4.03;1.98;;;19.20;88.00;;;;;;5053880;28;20079;-76
2021/08/06 03:51:20;;;;;;;4.28;1.80;;;19.20;88.00;;;;;;5037146;28;20057;-75
2021/08/06 03:53:46;;;;;;;3.80;2.40;;;19.20;88.10;;;;;;5036918;28;20029;-76
2021/08/06 03:56:12;;;;;;;6.40;2.15;;;19.20;88.00;;;;;;5053620;28;20481;-76
2021/08/06 03:58:37;;;;;;;3.90;1.65;;;19.20;88.20;;;;;;5027511;28;20047;-74
2021/08/06 04:01:03;;;;;;;4.88;1.85;;;19.20;88.80;;;;;;5069401;28;20380;-75
2021/08/06 04:03:29;;;;;;;3.63;1.90;;;19.10;90.00;;;;;;5073374;28;20507;-77
2021/08/06 04:05:54;;;;;;;3.97;1.70;;;19.00;90.20;;;;;;5074187;28;20101;-76
2021/08/06 04:08:20;;;;;;;5.53;2.25;;;18.90;90.60;;;;;;5056214;28;20490;-76
2021/08/06 04:10:45;;;;;;;4.07;1.85;;;18.80;90.70;;;;;;5073530;28;20024;-76
2021/08/06 04:13:11;;;;;;;4.70;2.05;;;18.70;91.10;;;;;;5073280;28;20037;-77
2021/08/06 04:15:37;;;;;;;4.95;1.95;;;18.50;91.40;;;;;;5074641;28;20467;-79
2021/08/06 04:18:02;;;;;;;4.78;2.00;;;18.50;92.00;;;;;;5056654;28;20086;-78
2021/08/06 04:20:28;;;;;;;5.80;1.83;;;18.40;92.10;;;;;;5039856;28;20029;-79
2021/08/06 04:22:54;;;;;;;3.70;2.10;;;18.40;92.40;;;;;;5070489;28;20032;-81
2021/08/06 04:25:20;;;;;;;3.92;1.70;;;18.30;92.60;;;;;;5036249;28;20079;-81
2021/08/06 04:27:46;;;;;;;3.47;1.42;;;18.20;92.60;;;;;;5052431;28;20029;-79
2021/08/06 04:30:12;;;;;;;3.80;1.55;;;18.20;92.70;;;;;;5052776;28;20060;-78
2021/08/06 04:32:38;;;;;;;2.95;1.55;;;18.20;92.80;;;;;;5052873;28;20044;-77
2021/08/06 04:35:05;;;;;;;4.28;1.77;;;18.20;93.00;;;;;;5052705;28;20393;-78
2021/08/06 04:37:30;;;;;;;3.95;1.77;;;18.10;92.80;;;;;;5052673;28;20059;-78
2021/08/06 04:39:56;;;;;;;3.38;1.50;;;18.20;92.90;;;;;;5052653;28;20033;-78
2021/08/06 04:42:22;;;;;;;3.88;1.35;;;18.20;92.90;;;;;;5052548;28;20033;-78
2021/08/06 04:44:48;;;;;;;5.57;1.58;;;18.20;93.20;;;;;;5036034;28;20388;-78
2021/08/06 04:47:13;;;;;;;4.68;1.90;;;18.20;92.90;;;;;;5053732;28;20061;-78
2021/08/06 04:49:39;;;;;;;2.58;1.35;;;18.20;92.90;;;;;;5052464;28;20099;-78
2021/08/06 04:52:05;;;;;;;6.18;1.65;;;18.20;93.00;;;;;;5052593;28;20036;-77
2021/08/06 04:54:31;;;;;;;3.30;1.65;;;18.20;93.00;;;;;;5052330;28;20029;-77
2021/08/06 04:56:57;;;;;;;3.75;1.55;;;18.30;93.10;;;;;;5052374;28;20035;-77
2021/08/06 04:59:22;;;;;;;3.83;1.60;;;18.30;93.10;;;;;;5052153;28;20040;-77
2021/08/06 05:01:48;;;;;;;5.25;1.60;;;18.30;93.20;;;;;;5035738;28;20187;-77
2021/08/06 05:04:13;;;;;;;2.88;1.45;;;18.30;93.20;;;;;;5019245;28;20021;-78
2021/08/06 05:06:39;;;;;;;4.85;1.65;;;18.40;93.10;;;;;;5052331;28;20108;-77
2021/08/06 05:09:05;;;;;;;3.13;1.70;;;18.40;93.20;;;;;;5035592;28;20440;-77
2021/08/06 05:11:31;;;;;;;3.75;1.73;;;18.50;93.20;;;;;;5052210;28;20033;-77
2021/08/06 05:13:57;;;;;;;4.05;1.90;;;18.40;93.20;;;;;;5041921;28;20040;-77
2021/08/06 05:16:22;;;;;;;4.15;1.88;;;18.50;93.20;;;;;;5054103;28;20082;-77
2021/08/06 05:18:48;;;;;;;2.92;1.52;;;18.50;93.20;;;;;;5072225;28;20033;-79
2021/08/06 05:21:17;;;;;;;3.53;1.80;;;18.50;93.20;;;;;;5053967;28;20028;-77
2021/08/06 05:23:42;;;;;;;3.45;1.67;;;18.50;93.10;;;;;;5055233;28;20044;-74
2021/08/06 05:26:08;;;;;;;3.40;1.83;;;18.50;93.20;;;;;;5073137;28;20538;-74
2021/08/06 05:28:33;;;;;;;3.78;1.75;;;18.60;93.40;;;;;;5070926;28;20025;-73
2021/08/06 05:30:59;;;;;;;2.95;1.50;;;18.60;93.40;;;;;;5055223;28;20017;-76
2021/08/06 05:33:25;;;;;;;3.38;1.90;;;18.60;93.30;;;;;;5071537;28;20027;-76
2021/08/06 05:35:50;;;;;;;5.00;2.00;;;18.60;93.30;;;;;;5038592;28;20031;-74
2021/08/06 05:38:16;;;;;;;3.40;1.80;;;18.60;93.30;;;;;;5072054;28;20029;-74
2021/08/06 05:40:42;;;;;;;3.40;1.73;;;18.60;93.40;;;;;;5071822;28;20113;-72
2021/08/06 05:43:08;;;;;;;4.22;1.48;;;18.60;93.40;;;;;;5071887;28;20494;-74
2021/08/06 05:45:33;;;;;;;3.85;1.88;;;18.60;93.40;;;;;;5071832;28;20037;-73
2021/08/06 05:47:59;;;;;;;4.28;1.60;;;18.60;93.30;;;;;;5073078;28;20052;-74
2021/08/06 05:50:27;;;;;;;3.70;1.60;;;18.60;93.30;;;;;;5071681;28;20472;-74
2021/08/06 05:52:53;;;;;;;3.33;1.45;;;18.60;93.30;;;;;;5071630;28;20513;-73
2021/08/06 05:55:19;;;;;;;3.17;1.40;;;18.70;93.40;;;;;;5071639;28;20056;-72
2021/08/06 05:57:45;;;;;;;5.38;1.55;;;18.60;93.30;;;;;;5071556;28;20035;-73
2021/08/06 06:00:14;;;;;;;3.78;1.42;;;18.60;93.30;;;;;;5071504;28;20025;-73
2021/08/06 06:02:39;;;;;;;3.72;1.65;;;18.60;93.40;;;;;;5071592;28;20017;-74
2021/08/06 06:05:06;;;;;;;2.78;1.42;;;18.60;93.40;;;;;;5036858;28;20106;-74
2021/08/06 06:07:31;;;;;;;2.60;1.23;;;18.60;93.40;;;;;;5072976;28;20087;-75
2021/08/06 06:09:57;;;;;;;3.05;1.52;;;18.60;93.50;;;;;;5054716;28;20476;-75
2021/08/06 06:12:22;;;;;;;4.38;1.60;;;18.60;93.60;;;;;;5072131;28;20029;-76
2021/08/06 06:14:48;;;;;;;4.20;1.48;;;18.50;93.60;;;;;;5071793;28;20028;-76
2021/08/06 06:17:14;;;;;;;2.67;1.40;;;18.50;93.80;;;;;;5072039;28;20452;-75
2021/08/06 06:19:44;;;;;;;3.30;1.52;;;18.50;94.00;;;;;;5054965;28;20174;-76
2021/08/06 06:22:10;;;;;;;4.57;2.03;;;18.40;94.60;;;;;;5071747;28;20024;-76
2021/08/06 06:24:35;;;;;;;3.97;2.00;;;18.40;94.40;;;;;;5049351;28;20510;-76
2021/08/06 06:27:06;;;;;;;3.70;1.67;;;18.30;94.60;;;;;;5052666;28;20188;-77
2021/08/06 06:29:32;;;;;;;3.58;1.83;;;18.20;94.70;;;;;;5040279;28;20167;-75
2021/08/06 06:31:58;;;;;;;2.75;1.33;;;18.20;94.80;;;;;;5036529;28;20123;-77
2021/08/06 06:34:33;;;;;;;3.88;1.60;;;18.20;95.00;;;;;;5054705;28;20441;-78
2021/08/06 06:37:17;;;;;;;4.32;1.83;;;18.10;95.20;;;;;;5038373;28;20499;-77
2021/08/06 06:39:43;;;;;;;3.67;1.80;;;18.10;95.30;;;;;;5071030;28;20024;-78
2021/08/06 06:42:58;;;;;;;3.45;1.73;;;18.10;95.50;;;;;;5071559;28;20461;-78
2021/08/06 06:45:33;;;;;;;;;;;18.20;95.50;;;;;;5059196;28;20033;-79
2021/08/06 06:47:58;;;;;;;5.03;1.10;;;18.20;95.70;;;;;;5074847;28;19947;-79
2021/08/06 06:50:27;;;;;;;3.90;1.65;;;18.30;95.60;;;;;;5058430;28;20565;-80
2021/08/06 06:52:55;;;;;;;2.67;1.33;;;18.30;95.60;;;;;;5074691;28;20384;-82
2021/08/06 06:55:22;;;;;;;3.28;1.73;;;18.40;95.60;;;;;;5058118;28;20020;-81
2021/08/06 06:57:56;;;;;;;3.25;1.70;;;18.40;95.80;;;;;;5074461;28;20025;-81
2021/08/06 07:00:32;;;;;;;2.50;1.77;;;18.50;95.50;;;;;;5074191;28;20024;-79
2021/08/06 07:03:11;;;;;;;3.42;1.95;;;18.60;95.50;;;;;;5074650;28;20532;-81
2021/08/06 07:05:36;;;;;;;3.10;1.75;;;18.70;95.40;;;;;;5057664;28;20082;-83
2021/08/06 07:08:02;;;;;;;4.35;2.22;;;18.80;95.40;;;;;;5074881;28;20407;-81
2021/08/06 07:10:29;;;;;;;4.22;2.10;;;18.90;95.20;;;;;;5074460;28;20024;-81
2021/08/06 07:12:55;;;;;;;4.68;2.30;;;19.00;95.10;;;;;;5075559;28;20079;-82
2021/08/06 07:15:21;;;;;;;3.95;2.05;;;19.10;95.00;;;;;;5057718;28;20029;-81
2021/08/06 07:17:47;;;;;;;4.03;2.75;;;19.10;94.80;;;;;;5075512;28;20070;-83
2021/08/06 07:20:15;;;;;;;5.68;2.85;;;19.30;94.70;;;;;;5057414;28;20056;-81
2021/08/06 07:22:42;;;;;;;5.80;3.85;;;19.30;94.50;;;;;;5057372;28;20036;-79
2021/08/06 07:25:10;;;;;;;4.68;3.08;;;19.40;94.40;;;;;;5075233;28;20033;-79
2021/08/06 07:27:36;;;;;;;4.80;2.90;;;19.30;94.10;;;;;;5057555;28;20119;-79
2021/08/06 07:30:03;;;;;;;3.80;3.08;;;19.40;94.00;;;;;;5057675;28;20052;-83
2021/08/06 07:32:29;;;;;;;4.85;2.90;;;19.40;93.80;;;;;;5057556;28;20040;-81
2021/08/06 07:34:55;;;;;;;4.00;2.55;;;19.40;93.80;;;;;;5057300;28;20028;-81
2021/08/06 07:37:21;;;;;;;4.43;3.33;;;19.40;93.80;;;;;;5040633;28;20131;-82
2021/08/06 07:39:47;;;;;;;3.58;2.47;;;19.50;93.60;;;;;;5040476;28;20037;-83
2021/08/06 07:42:15;;;;;;;4.25;2.72;;;19.50;93.50;;;;;;5073841;28;20028;-79
2021/08/06 07:44:40;;;;;;;4.43;2.75;;;19.50;93.50;;;;;;5057535;28;20021;-81
2021/08/06 07:47:06;;;;;;;3.63;2.30;;;19.60;93.30;;;;;;5057030;28;20051;-80
2021/08/06 07:49:32;;;;;;;5.25;3.22;;;19.70;93.20;;;;;;5057028;28;20040;-81
2021/08/06 07:51:57;;;;;;;4.65;3.00;;;19.70;93.10;;;;;;5073668;28;20040;-80
2021/08/06 07:54:23;;;;;;;3.70;2.80;;;19.70;92.90;;;;;;5074982;28;20070;-81
2021/08/06 07:56:49;;;;;;;3.85;3.28;;;19.70;92.80;;;;;;5057110;28;20081;-80
2021/08/06 07:59:16;;;;;;;5.40;3.58;;;19.70;92.80;;;;;;5074796;28;20051;-82
2021/08/06 08:01:42;;;;;;;5.88;3.90;;;19.80;92.70;;;;;;5073745;28;20051;-79
2021/08/06 08:04:07;;;;;;;4.38;3.17;;;19.80;92.70;;;;;;5075035;28;20473;-81
2021/08/06 08:06:33;;;;;;;4.30;3.58;;;20.00;92.50;;;;;;5073454;28;20024;-82
2021/08/06 08:08:59;;;;;;;6.07;3.75;;;20.00;92.50;;;;;;5056910;28;20028;-79
2021/08/06 08:11:24;;;;;;;6.75;3.60;;;20.10;92.50;;;;;;5056534;28;20033;-80
2021/08/06 08:13:50;;;;;;;5.72;3.22;;;20.20;92.10;;;;;;5073262;28;20068;-82
2021/08/06 08:16:15;;;;;;;5.57;3.88;;;20.20;91.70;;;;;;5073072;28;20069;-80
2021/08/06 08:18:41;;;;;;;5.57;3.17;;;20.30;91.10;;;;;;5074409;28;20037;-80
2021/08/06 08:21:07;;;;;;;6.03;3.80;;;20.20;91.20;;;;;;5039553;28;20117;-79
2021/08/06 08:23:32;;;;;;;6.85;3.63;;;20.20;91.10;;;;;;5072904;28;20051;-82
2021/08/06 08:25:58;;;;;;;6.15;4.22;;;20.20;90.70;;;;;;5056596;28;20439;-81
2021/08/06 08:28:25;;;;;;;6.20;4.07;;;20.20;90.60;;;;;;5072987;28;20060;-84
2021/08/06 08:30:51;;;;;;;7.10;3.50;;;20.20;90.60;;;;;;5074190;28;20074;-80
2021/08/06 08:33:18;;;;;;;6.45;3.67;;;20.20;90.60;;;;;;5074187;28;20032;-83
2021/08/06 08:35:44;;;;;;;6.78;4.22;;;20.20;90.40;;;;;;5072681;28;20066;-81
2021/08/06 08:38:10;;;;;;;6.85;3.80;;;20.20;89.80;;;;;;5072637;28;20469;-79
2021/08/06 08:40:37;;;;;;;8.00;3.92;;;20.10;89.30;;;;;;5056039;28;20047;-80
2021/08/06 08:43:04;;;;;;;5.45;3.88;;;20.10;89.50;;;;;;5073998;28;20020;-80
2021/08/06 08:45:30;;;;;;;7.40;3.80;;;20.10;89.30;;;;;;5072553;28;20028;-82
2021/08/06 08:47:58;;;;;;;5.78;3.13;;;20.20;89.40;;;;;;5073610;28;20086;-83
2021/08/06 08:50:25;;;;;;;3.95;3.10;;;20.30;88.90;;;;;;5072494;28;20058;-80
2021/08/06 08:52:51;;;;;;;7.68;3.25;;;20.30;88.60;;;;;;5072452;28;20031;-82
2021/08/06 08:55:17;;;;;;;3.88;2.45;;;20.30;88.20;;;;;;5072273;28;20032;-76
2021/08/06 08:57:43;;;;;;;5.70;2.72;;;20.30;88.40;;;;;;5072574;28;20025;-76
2021/08/06 09:00:12;;;;;;;6.22;2.88;;;20.40;87.90;;;;;;5067311;28;20040;-75
2021/08/06 09:02:39;;;;;;;6.50;2.90;;;20.40;87.70;;;;;;5052338;28;20108;-76
2021/08/06 09:05:28;;;;;;;3.80;2.10;;;20.40;87.60;;;;;;5035647;28;20461;-74
2021/08/06 09:07:54;;;;;;;5.60;3.30;;;20.50;87.60;;;;;;5051664;28;20017;-74
2021/08/06 09:10:25;;;;;;;9.75;2.65;;;20.50;87.20;;;;;;5052565;28;20029;-75
2021/08/06 09:13:00;;;;;;;4.68;2.97;;;20.50;85.90;;;;;;5052619;28;20028;-75
2021/08/06 09:15:49;;;;;;;6.35;2.90;;;20.50;85.50;;;;;;5052167;28;20377;-75
2021/08/06 09:18:26;;;;;;;6.78;3.42;;;20.60;84.70;;;;;;5053719;28;20048;-75
2021/08/06 09:20:58;;;;;;;8.25;2.70;;;20.60;84.60;;;;;;5053249;28;20420;-75
2021/08/06 09:23:41;;;;;;;3.58;1.98;;;20.70;84.00;;;;;;5053363;28;20040;-73
2021/08/06 09:26:09;;;;;;;5.57;1.90;;;20.70;83.30;;;;;;5052288;28;20082;-75
2021/08/06 09:28:58;;;;;;;3.65;1.95;;;20.80;82.70;;;;;;5053195;28;20032;-75
2021/08/06 09:31:23;;;;;;;4.28;2.50;;;20.80;82.50;;;;;;5052078;28;20029;-75
2021/08/06 09:34:06;;;;;;;3.95;2.03;;;20.80;82.20;;;;;;5052016;28;20037;-75
2021/08/06 09:36:31;;;;;;;4.07;2.20;;;20.80;82.50;;;;;;5052561;28;20029;-79
2021/08/06 09:39:14;;;;;;;5.95;1.58;;;20.80;82.50;;;;;;5035287;28;20166;-79
2021/08/06 09:41:45;;;;;;;4.00;1.70;;;20.80;82.40;;;;;;5053218;28;20496;-81
2021/08/06 09:44:26;;;;;;;4.15;1.55;;;20.80;81.60;;;;;;5053101;28;20085;-82
2021/08/06 09:46:53;;;;;;;3.38;1.58;;;20.80;80.70;;;;;;5052960;28;20060;-77
2021/08/06 09:49:20;;;;;;;4.82;2.00;;;20.80;80.70;;;;;;5051764;28;20044;-80
2021/08/06 09:51:51;;;;;;;3.55;1.42;;;20.80;81.20;;;;;;5035339;28;20033;-80
2021/08/06 09:54:22;;;;;;;4.85;1.25;;;21.10;81.70;;;;;;5051888;28;20063;-81
2021/08/06 09:56:59;;;;;;;2.83;1.10;;;21.30;81.50;;;;;;5051723;28;20021;-81
2021/08/06 09:59:27;;;;;;;3.65;1.40;;;21.60;81.50;;;;;;5052860;28;20029;-79
2021/08/06 10:02:30;;;;;;;6.45;1.40;;;21.80;80.20;;;;;;5051829;28;20022;-80
2021/08/06 10:05:10;;;;;;;3.35;1.40;;;21.80;77.30;;;;;;5052954;28;20033;-78
2021/08/06 10:07:41;;;;;;;3.90;1.50;;;21.70;76.70;;;;;;5051528;28;20490;-77
2021/08/06 10:10:16;;;;;;;6.25;1.40;;;21.60;76.40;;;;;;5052982;28;20086;-83
2021/08/06 10:12:42;;;;;;;7.18;1.98;;;21.50;77.10;;;;;;5051292;28;20036;-78
2021/08/06 10:15:08;;;;;;;7.13;3.10;;;21.30;82.40;;;;;;5052771;28;20051;-80
2021/08/06 10:17:34;;;;;;;6.88;3.10;;;20.80;85.70;;;;;;5051433;28;20040;-82
2021/08/06 10:20:00;;;;;;;5.10;3.20;;;20.40;87.40;;;;;;5053926;28;20036;-83
2021/08/06 10:22:25;;;;;;;6.57;3.33;;;20.20;88.30;;;;;;5055134;28;20032;-83
2021/08/06 10:24:53;;;;;;;5.13;2.88;;;20.10;89.70;;;;;;5038718;28;20033;-76
2021/08/06 10:27:25;;;;;;;7.75;2.95;;;20.10;90.00;;;;;;5056352;28;20381;-75
2021/08/06 10:29:55;;;;;;;5.28;2.60;;;20.20;90.00;;;;;;5056257;28;20029;-76
2021/08/06 10:32:21;;;;;;;5.95;2.50;;;20.30;90.20;;;;;;5054924;28;20388;-76
2021/08/06 10:35:05;;;;;;;6.03;2.22;;;20.50;90.10;;;;;;5038248;28;20028;-75
2021/08/06 10:37:55;;;;;;;5.38;1.42;;;20.70;89.60;;;;;;5056094;28;20029;-78
2021/08/06 10:40:33;;;;;;;5.00;1.17;;;20.90;88.60;;;;;;5056005;28;20484;-76
2021/08/06 10:43:11;;;;;;;4.68;1.27;;;21.10;87.40;;;;;;5054704;28;20024;-78
2021/08/06 10:45:46;;;;;;;4.35;0.88;;;21.30;84.90;;;;;;5055966;28;20024;-75
2021/08/06 10:48:41;;;;;;;5.13;1.23;;;21.50;84.80;;;;;;5055948;28;20017;-79
2021/08/06 10:51:12;;;;;;;3.38;1.00;;;21.70;81.20;;;;;;5055849;28;20029;-77
2021/08/06 10:54:08;;;;;;;4.45;0.93;;;21.80;81.50;;;;;;5054476;28;20053;-75
2021/08/06 10:56:36;;;;;;;2.95;0.95;;;21.90;80.60;;;;;;5054467;28;20500;-75
2021/08/06 10:59:10;;;;;;;3.35;0.80;;;21.90;81.00;;;;;;5054481;28;20035;-77
2021/08/06 11:01:41;;;;;;;2.40;0.70;;;22.00;80.70;;;;;;5055697;28;20021;-75
2021/08/06 11:04:16;;;;;;;2.22;0.90;;;22.20;80.70;;;;;;5054529;28;20104;-75
2021/08/06 11:06:46;;;;;;;5.53;1.13;;;22.40;79.70;;;;;;5054231;28;20029;-76
2021/08/06 11:09:25;;;;;;;2.78;0.80;;;22.60;79.70;;;;;;5055711;28;20036;-76
2021/08/06 11:12:00;;;;;;;2.25;0.55;;;23.20;78.20;;;;;;5054372;28;20035;-76
2021/08/06 11:14:29;;;;;;;1.25;0.50;;;23.70;76.70;;;;;;5055612;28;20036;-76
2021/08/06 11:17:15;;;;;;;1.75;0.47;;;24.20;74.60;;;;;;5054580;28;20465;-76
2021/08/06 11:19:54;;;;;;;1.27;0.60;;;24.50;72.30;;;;;;5054412;28;20112;-76
2021/08/06 11:22:31;;;;;;;3.92;0.80;;;24.70;71.50;;;;;;5055345;28;20465;-75
2021/08/06 11:25:01;;;;;;;0.73;0.40;;;25.00;69.70;;;;;;5055380;28;20039;-76
2021/08/06 11:27:42;;;;;;;3.17;1.02;;;25.40;69.00;;;;;;5055242;28;20025;-79
2021/08/06 11:30:12;;;;;;;4.85;0.60;;;25.90;65.90;;;;;;5055001;28;20400;-79
2021/08/06 11:32:48;;;;;;;3.53;0.50;;;26.30;64.10;;;;;;5055034;28;20032;-76
2021/08/06 11:35:18;;;;;;;2.05;0.40;;;26.70;63.30;;;;;;5055057;28;20040;-77
2021/08/06 11:38:00;;;;;;;2.28;0.50;;;27.00;63.60;;;;;;5055080;28;20033;-77
2021/08/06 11:40:34;;;;;;;2.22;0.57;;;26.90;61.10;;;;;;5054868;28;20033;-76
2021/08/06 11:43:21;;;;;;;1.92;0.47;;;26.80;60.70;;;;;;5053710;28;20045;-78
2021/08/06 11:45:52;;;;;;;1.77;0.50;;;26.50;58.60;;;;;;5053552;28;20029;-76
2021/08/06 11:48:19;;;;;;;7.03;0.70;;;26.20;59.30;;;;;;5053671;28;20032;-77
2021/08/06 11:50:52;;;;;;;4.53;0.60;;;25.80;59.80;;;;;;5036944;28;20029;-76
2021/08/06 11:53:28;;;;;;;2.95;0.55;;;25.70;60.40;;;;;;5053455;28;20025;-75
2021/08/06 11:55:57;;;;;;;2.75;0.50;;;25.90;61.10;;;;;;5054087;28;20063;-76
2021/08/06 11:58:32;;;;;;;3.30;0.65;;;26.10;60.80;;;;;;5070229;28;20039;-76
2021/08/06 12:00:58;;;;;;;2.50;0.65;;;26.30;59.00;;;;;;5073791;28;20020;-77
2021/08/06 12:03:24;;;;;;;4.30;0.55;;;26.50;58.70;;;;;;5073605;28;20025;-79
2021/08/06 12:05:59;;;;;;;3.42;0.43;;;26.30;57.90;;;;;;5073764;28;20028;-75
2021/08/06 12:08:31;;;;;;;1.13;0.40;;;26.10;58.10;;;;;;5073599;28;20016;-76
2021/08/06 12:11:06;;;;;;;1.75;0.50;;;25.70;58.40;;;;;;5074756;28;20430;-76
2021/08/06 12:13:39;;;;;;;3.33;0.50;;;25.20;58.70;;;;;;5070849;28;20096;-76
2021/08/06 12:16:11;;;;;;;1.90;0.40;;;24.80;59.90;;;;;;5056444;28;20426;-74
2021/08/06 12:18:58;;;;;;;2.35;0.50;;;24.50;60.90;;;;;;5072611;28;20037;-75
2021/08/06 12:21:29;;;;;;;1.88;0.60;;;24.20;61.90;;;;;;5072949;28;20388;-75
2021/08/06 12:23:59;;;;;;;2.20;0.65;;;23.90;62.70;;;;;;5055960;28;20128;-76
2021/08/06 12:26:34;;;;;;;3.08;0.70;;;23.70;63.70;;;;;;5072970;28;20025;-78
2021/08/06 12:29:10;;;;;;;4.57;0.90;;;23.50;65.60;;;;;;5072615;28;20052;-75
2021/08/06 12:31:48;;;;;;;2.38;0.55;;;23.30;67.20;;;;;;5072796;28;20013;-74
2021/08/06 12:34:13;;;;;;;1.70;0.52;;;23.60;67.80;;;;;;5073898;28;20029;-76
2021/08/06 12:36:52;;;;;;;1.10;0.40;;;24.00;68.10;;;;;;5056017;28;20027;-76
2021/08/06 12:39:18;;;;;;;1.75;0.40;;;24.50;67.50;;;;;;5073669;28;20335;-76
2021/08/06 12:41:48;;;;;;;1.35;0.30;;;25.00;66.20;;;;;;5072275;28;20025;-80
2021/08/06 12:44:17;;;;;;;1.10;0.20;;;25.50;65.90;;;;;;5073370;28;20161;-76
2021/08/06 12:47:01;;;;;;;0.93;0.10;;;26.30;64.60;;;;;;5073615;28;20032;-76
2021/08/06 12:49:46;;;;;;;0.95;0.20;;;27.10;62.90;;;;;;5072338;28;20024;-77
2021/08/06 12:52:35;;;;;;;1.70;0.20;;;27.50;59.20;;;;;;5072249;28;20024;-78
2021/08/06 12:55:21;;;;;;;1.60;0.30;;;27.70;58.50;;;;;;5073554;28;20564;-75
2021/08/06 12:57:51;;;;;;;0.88;0.20;;;28.10;58.90;;;;;;5072385;28;20036;-76
2021/08/06 13:00:29;;;;;;;0.63;0.20;;;28.60;58.20;;;;;;5073581;28;20413;-81